createdAt,value
2023-01-28T00:01:18.271Z,90.80
2023-01-28T00:03:48.166Z,90.40
2023-01-28T00:06:17.066Z,90.70
2023-01-28T00:08:45.527Z,91.00
2023-01-28T00:11:14.285Z,90.80
2023-01-28T00:13:42.548Z,90.60
2023-01-28T00:16:30.594Z,90.60
2023-01-28T00:18:58.321Z,90.40
2023-01-28T00:21:26.826Z,90.70
2023-01-28T00:23:56.652Z,90.70
2023-01-28T00:26:26.055Z,90.50
2023-01-28T00:29:13.910Z,90.60
2023-01-28T00:31:44.415Z,90.30
2023-01-28T00:34:12.693Z,90.10
2023-01-28T00:36:42.622Z,90.20
2023-01-28T00:39:15.755Z,90.30
2023-01-28T00:41:43.086Z,90.50
2023-01-28T00:44:11.992Z,90.50
2023-01-28T00:46:39.644Z,90.70
2023-01-28T00:49:07.249Z,90.50
2023-01-28T00:51:34.918Z,90.20
2023-01-28T00:54:02.655Z,90.40
2023-01-28T00:56:36.915Z,90.50
2023-01-28T00:59:06.461Z,90.20
2023-01-28T01:01:34.465Z,90.10
2023-01-28T01:04:05.185Z,90.10
2023-01-28T01:06:35.733Z,89.40
2023-01-28T01:09:08.341Z,88.20
2023-01-28T01:11:35.063Z,88.30
2023-01-28T01:14:04.335Z,88.90
2023-01-28T01:16:33.700Z,89.40
2023-01-28T01:19:01.344Z,90.00
2023-01-28T01:21:30.399Z,90.30
2023-01-28T01:23:58.027Z,90.50
2023-01-28T01:26:27.305Z,90.50
2023-01-28T01:28:55.109Z,90.60
2023-01-28T01:31:23.685Z,90.60
2023-01-28T01:33:58.478Z,90.60
2023-01-28T01:36:26.941Z,90.50
2023-01-28T01:38:55.851Z,90.20
2023-01-28T01:41:27.075Z,90.20
2023-01-28T01:44:01.116Z,90.10
2023-01-28T01:46:32.426Z,90.20
2023-01-28T01:49:20.110Z,90.70
2023-01-28T01:51:53.764Z,91.30
2023-01-28T01:54:25.201Z,91.30
2023-01-28T01:56:53.626Z,91.40
2023-01-28T01:59:24.936Z,91.30
2023-01-28T02:01:53.565Z,91.30
2023-01-28T02:04:45.613Z,91.20
2023-01-28T02:07:17.453Z,91.60
2023-01-28T02:09:45.885Z,91.70
2023-01-28T02:12:21.654Z,91.90
2023-01-28T02:14:53.206Z,92.00
2023-01-28T02:17:22.357Z,92.10
2023-01-28T02:20:02.035Z,92.40
2023-01-28T02:23:02.773Z,92.60
2023-01-28T02:25:58.391Z,92.60
2023-01-28T02:28:42.032Z,92.50
2023-01-28T02:31:25.540Z,92.70
2023-01-28T02:33:59.793Z,92.80
2023-01-28T02:36:35.335Z,92.80
2023-01-28T02:39:07.392Z,92.70
2023-01-28T02:41:58.408Z,92.50
2023-01-28T02:44:28.604Z,92.60
2023-01-28T02:47:14.926Z,92.70
2023-01-28T02:49:49.702Z,92.60
2023-01-28T02:52:57.967Z,92.50
2023-01-28T02:55:41.541Z,92.50
2023-01-28T02:58:42.134Z,92.60
2023-01-28T03:01:20.053Z,92.80
2023-01-28T03:04:01.606Z,93.00
2023-01-28T03:06:36.710Z,93.20
2023-01-28T03:09:26.831Z,93.20
2023-01-28T03:12:20.095Z,93.50
2023-01-28T03:15:17.292Z,93.60
2023-01-28T03:18:06.754Z,93.70
2023-01-28T03:21:00.421Z,93.60
2023-01-28T03:23:50.431Z,93.50
2023-01-28T03:26:42.199Z,93.20
2023-01-28T03:29:31.237Z,93.70
2023-01-28T03:32:21.438Z,93.60
2023-01-28T03:35:08.578Z,94.00
2023-01-28T03:37:36.114Z,94.30
2023-01-28T03:40:14.553Z,94.50
2023-01-28T03:42:43.691Z,94.50
2023-01-28T03:45:15.036Z,94.50
2023-01-28T03:47:44.682Z,94.50
2023-01-28T03:50:12.778Z,94.30
2023-01-28T03:52:42.085Z,93.70
2023-01-28T03:55:13.855Z,93.70
2023-01-28T03:57:42.025Z,93.60
2023-01-28T04:00:11.916Z,93.90
2023-01-28T04:02:42.911Z,94.10
2023-01-28T04:05:13.497Z,94.30
2023-01-28T04:07:42.998Z,94.40
2023-01-28T04:10:12.085Z,94.60
2023-01-28T04:12:54.709Z,94.60
2023-01-28T04:15:26.686Z,94.60
2023-01-28T04:17:55.424Z,94.40
2023-01-28T04:20:27.845Z,94.60
2023-01-28T04:23:11.072Z,95.00
2023-01-28T04:25:39.123Z,94.80
2023-01-28T04:28:08.684Z,95.00
2023-01-28T04:30:37.145Z,95.10
2023-01-28T04:33:23.061Z,95.20
2023-01-28T04:36:11.107Z,95.00
2023-01-28T04:38:43.336Z,95.20
2023-01-28T04:41:21.669Z,95.60
2023-01-28T04:43:52.189Z,95.50
2023-01-28T04:46:24.610Z,95.70
2023-01-28T04:49:06.851Z,96.00
2023-01-28T04:51:54.298Z,96.00
2023-01-28T04:54:23.981Z,96.00
2023-01-28T04:56:53.233Z,96.00
2023-01-28T04:59:20.752Z,95.50
2023-01-28T05:02:08.842Z,95.90
2023-01-28T05:04:36.453Z,96.20
2023-01-28T05:07:04.240Z,96.50
2023-01-28T05:09:33.735Z,96.90
2023-01-28T05:12:01.960Z,96.60
2023-01-28T05:14:31.088Z,97.00
2023-01-28T05:17:00.568Z,97.50
2023-01-28T05:19:32.988Z,97.60
2023-01-28T05:22:01.685Z,97.80
2023-01-28T05:24:31.331Z,97.40
2023-01-28T05:26:59.296Z,97.30
2023-01-28T05:29:27.310Z,97.70
2023-01-28T05:31:55.107Z,98.00
2023-01-28T05:34:22.522Z,97.80
2023-01-28T05:36:51.225Z,97.60
2023-01-28T05:39:32.674Z,97.50
2023-01-28T05:42:00.193Z,97.70
2023-01-28T05:44:31.221Z,97.90
2023-01-28T05:47:06.693Z,98.30
2023-01-28T05:49:36.006Z,98.20
2023-01-28T05:52:21.900Z,98.60
2023-01-28T05:54:49.691Z,98.40
2023-01-28T05:57:17.207Z,98.50
2023-01-28T05:59:47.058Z,98.70
2023-01-28T06:02:14.741Z,98.70
2023-01-28T06:04:43.515Z,98.60
2023-01-28T06:07:13.687Z,98.70
2023-01-28T06:09:43.077Z,98.80
2023-01-28T06:12:11.341Z,99.60
2023-01-28T06:14:40.757Z,99.40
2023-01-28T06:17:28.606Z,99.10
2023-01-28T06:20:05.386Z,99.30
2023-01-28T06:22:33.990Z,99.30
2023-01-28T06:25:01.912Z,98.90
2023-01-28T06:27:30.588Z,98.80
2023-01-28T06:30:18.555Z,98.80
2023-01-28T06:32:47.167Z,98.60
2023-01-28T06:35:15.414Z,98.90
2023-01-28T06:37:43.433Z,98.80
2023-01-28T06:40:14.099Z,98.80
2023-01-28T06:42:41.936Z,98.70
2023-01-28T06:45:12.732Z,99.00
2023-01-28T06:47:40.232Z,99.30
2023-01-28T06:50:28.327Z,99.70
2023-01-28T06:52:56.265Z,99.90
2023-01-28T06:55:23.686Z,99.90
2023-01-28T06:58:06.174Z,99.90
2023-01-28T07:00:48.306Z,99.90
2023-01-28T07:03:18.214Z,99.90
2023-01-28T07:05:45.564Z,99.90
2023-01-28T07:08:16.253Z,99.90
2023-01-28T07:10:44.584Z,99.90
2023-01-28T07:13:12.373Z,99.90
2023-01-28T07:15:39.923Z,99.90
2023-01-28T07:18:16.677Z,99.90
2023-01-28T07:20:46.036Z,99.90
2023-01-28T07:23:15.267Z,99.90
2023-01-28T07:25:46.237Z,99.90
2023-01-28T07:28:18.334Z,99.90
2023-01-28T07:30:47.404Z,99.90
2023-01-28T07:33:16.676Z,99.90
2023-01-28T07:35:45.292Z,99.90
2023-01-28T07:38:13.792Z,99.90
2023-01-28T07:40:42.931Z,99.90
2023-01-28T07:43:11.539Z,99.90
2023-01-28T07:45:41.494Z,99.90
2023-01-28T07:48:12.548Z,99.90
2023-01-28T07:50:40.806Z,99.90
2023-01-28T07:53:12.023Z,99.90
2023-01-28T07:55:40.553Z,99.90
2023-01-28T07:58:11.512Z,99.90
2023-01-28T08:00:39.723Z,99.90
2023-01-28T08:03:11.684Z,99.90
2023-01-28T08:05:52.168Z,99.90
2023-01-28T08:08:19.977Z,99.90
2023-01-28T08:10:47.522Z,99.90
2023-01-28T08:13:16.629Z,99.90
2023-01-28T08:15:45.383Z,99.90
2023-01-28T08:18:15.134Z,99.90
2023-01-28T08:20:48.226Z,99.90
2023-01-28T08:23:18.300Z,99.90
2023-01-28T08:25:48.059Z,99.90
2023-01-28T08:28:17.417Z,99.90
2023-01-28T08:30:46.111Z,99.90
2023-01-28T08:33:16.046Z,99.90
2023-01-28T08:35:44.259Z,99.90
2023-01-28T08:38:14.265Z,99.90
2023-01-28T08:40:42.001Z,99.90
2023-01-28T08:43:09.689Z,99.90
2023-01-28T08:45:37.216Z,99.90
2023-01-28T08:48:07.782Z,99.90
2023-01-28T08:50:38.802Z,99.90
2023-01-28T08:53:16.436Z,99.90
2023-01-28T08:55:45.658Z,99.90
2023-01-28T08:58:18.766Z,99.90
2023-01-28T09:00:47.386Z,99.90
2023-01-28T09:03:28.993Z,99.90
2023-01-28T09:06:08.006Z,99.20
2023-01-28T09:08:35.894Z,98.70
2023-01-28T09:11:04.426Z,98.40
2023-01-28T09:13:32.545Z,98.30
2023-01-28T09:16:00.684Z,98.40
2023-01-28T09:18:28.902Z,98.10
2023-01-28T09:20:56.704Z,97.80
2023-01-28T09:23:24.742Z,97.40
2023-01-28T09:25:56.402Z,97.60
2023-01-28T09:28:24.255Z,97.50
2023-01-28T09:31:07.213Z,97.40
2023-01-28T09:33:37.188Z,96.90
2023-01-28T09:36:07.551Z,96.00
2023-01-28T09:38:35.487Z,95.90
2023-01-28T09:41:06.347Z,95.70
2023-01-28T09:43:37.647Z,95.00
2023-01-28T09:46:06.817Z,94.20
2023-01-28T09:48:38.584Z,94.50
2023-01-28T09:51:10.262Z,94.10
2023-01-28T09:53:54.323Z,94.20
2023-01-28T09:56:33.631Z,94.00
2023-01-28T09:59:13.996Z,93.70
2023-01-28T10:01:45.864Z,93.20
2023-01-28T10:04:32.788Z,92.40
2023-01-28T10:07:10.595Z,92.50
2023-01-28T10:09:56.651Z,93.10
2023-01-28T10:12:52.792Z,93.00
2023-01-28T10:15:46.134Z,92.40
2023-01-28T10:18:31.333Z,92.80
2023-01-28T10:21:18.366Z,92.50
2023-01-28T10:23:52.759Z,92.50
2023-01-28T10:26:25.282Z,92.40
2023-01-28T10:28:56.628Z,92.50
2023-01-28T10:31:27.249Z,92.10
2023-01-28T10:33:55.959Z,92.20
2023-01-28T10:36:24.360Z,92.70
2023-01-28T10:38:53.459Z,92.20
2023-01-28T10:41:23.169Z,91.50
2023-01-28T10:43:51.170Z,91.80
2023-01-28T10:46:29.167Z,92.10
2023-01-28T10:49:14.359Z,91.90
2023-01-28T10:51:43.319Z,91.60
2023-01-28T10:54:23.415Z,93.50
2023-01-28T10:56:57.425Z,92.20
2023-01-28T10:59:45.589Z,91.30
2023-01-28T11:02:33.715Z,90.70
2023-01-28T11:05:12.490Z,91.20
2023-01-28T11:07:40.999Z,91.80
2023-01-28T11:10:29.152Z,91.90
2023-01-28T11:13:21.686Z,90.80
2023-01-28T11:15:52.610Z,90.00
2023-01-28T11:18:26.341Z,87.90
2023-01-28T11:20:59.525Z,87.10
2023-01-28T11:23:31.896Z,86.60
2023-01-28T11:26:08.744Z,88.30
2023-01-28T11:28:41.769Z,88.30
2023-01-28T11:31:22.621Z,85.80
2023-01-28T11:33:57.750Z,85.10
2023-01-28T11:36:33.201Z,85.40
2023-01-28T11:39:19.601Z,85.50
2023-01-28T11:44:48.069Z,83.60
2023-01-28T11:47:27.826Z,81.90
2023-01-28T11:50:07.002Z,82.40
2023-01-28T11:53:07.064Z,85.00
2023-01-28T11:55:39.823Z,84.30
2023-01-28T11:58:25.846Z,82.90
2023-01-28T12:01:15.848Z,82.70
2023-01-28T12:04:11.700Z,81.20
2023-01-28T12:07:04.585Z,79.20
2023-01-28T12:09:40.264Z,80.90
2023-01-28T12:12:34.594Z,78.40
2023-01-28T12:15:25.806Z,76.40
2023-01-28T12:18:32.113Z,75.10
2023-01-28T12:21:08.099Z,74.80
2023-01-28T12:23:51.838Z,75.20
2023-01-28T12:26:29.190Z,74.80
2023-01-28T12:29:01.602Z,77.50
2023-01-28T12:31:35.873Z,75.30
2023-01-28T12:34:27.068Z,73.10
2023-01-28T12:37:27.444Z,72.50
2023-01-28T12:39:58.909Z,71.20
2023-01-28T12:42:33.214Z,71.40
2023-01-28T12:45:25.859Z,72.00
2023-01-28T12:48:09.412Z,72.50
2023-01-28T12:50:41.286Z,73.40
2023-01-28T12:53:31.242Z,73.80
2023-01-28T12:56:08.795Z,73.20
2023-01-28T12:58:58.001Z,71.30
2023-01-28T13:01:45.087Z,70.90
2023-01-28T13:04:25.149Z,70.30
2023-01-28T13:06:56.605Z,71.40
2023-01-28T13:09:26.690Z,70.90
2023-01-28T13:11:57.988Z,73.00
2023-01-28T13:14:29.783Z,71.90
2023-01-28T13:16:58.068Z,72.40
2023-01-28T13:19:29.540Z,71.10
2023-01-28T13:21:57.259Z,70.60
2023-01-28T13:24:28.861Z,69.70
2023-01-28T13:26:57.399Z,69.70
2023-01-28T13:29:34.841Z,68.50
2023-01-28T13:32:04.471Z,66.60
2023-01-28T13:34:37.066Z,66.40
2023-01-28T13:37:19.148Z,65.20
2023-01-28T13:39:53.076Z,65.40
2023-01-28T13:42:30.043Z,65.40
2023-01-28T13:45:11.761Z,64.10
2023-01-28T13:47:43.075Z,64.50
2023-01-28T13:50:26.630Z,63.30
2023-01-28T13:53:01.002Z,63.20
2023-01-28T13:55:45.363Z,62.70
2023-01-28T13:58:35.984Z,61.50
2023-01-28T14:01:10.575Z,62.70
2023-01-28T14:03:44.830Z,62.90
2023-01-28T14:06:43.257Z,62.40
2023-01-28T14:09:50.342Z,62.50
2023-01-28T14:12:38.625Z,61.60
2023-01-28T14:15:46.004Z,62.90
2023-01-28T14:18:28.695Z,63.90
2023-01-28T14:20:59.077Z,61.90
2023-01-28T14:23:29.379Z,61.10
2023-01-28T14:26:31.170Z,59.40
2023-01-28T14:29:20.882Z,58.30
2023-01-28T14:31:48.777Z,53.70
2023-01-28T14:34:30.151Z,49.20
2023-01-28T14:37:01.365Z,44.10
2023-01-28T14:39:33.124Z,41.30
2023-01-28T14:42:05.011Z,38.10
2023-01-28T14:44:39.525Z,36.90
2023-01-28T14:47:29.791Z,34.10
2023-01-28T14:50:01.989Z,32.20
2023-01-28T14:53:05.348Z,30.70
2023-01-28T14:55:45.223Z,30.50
2023-01-28T14:58:25.604Z,29.80
2023-01-28T15:00:56.112Z,31.00
2023-01-28T15:03:25.128Z,33.20
2023-01-28T15:06:06.066Z,35.00
2023-01-28T15:08:33.757Z,37.20
2023-01-28T15:11:02.713Z,39.00
2023-01-28T15:13:35.522Z,38.40
2023-01-28T15:16:03.384Z,37.50
2023-01-28T15:18:34.791Z,36.50
2023-01-28T15:21:06.151Z,36.10
2023-01-28T15:23:36.086Z,35.20
2023-01-28T15:26:10.686Z,35.10
2023-01-28T15:28:42.949Z,35.20
2023-01-28T15:31:22.317Z,33.90
2023-01-28T15:34:16.120Z,34.70
2023-01-28T15:36:43.696Z,34.80
2023-01-28T15:39:22.588Z,34.60
2023-01-28T15:41:56.658Z,34.90
2023-01-28T15:44:36.757Z,34.60
2023-01-28T15:47:08.189Z,35.90
2023-01-28T15:49:38.212Z,36.40
2023-01-28T15:52:05.684Z,36.80
2023-01-28T15:54:37.268Z,38.90
2023-01-28T15:57:28.911Z,40.50
2023-01-28T16:00:09.528Z,41.80
2023-01-28T16:02:48.529Z,42.60
2023-01-28T16:05:40.731Z,44.30
2023-01-28T16:08:12.147Z,45.80
2023-01-28T16:10:40.450Z,48.30
2023-01-28T16:13:17.060Z,49.60
2023-01-28T16:15:48.870Z,50.70
2023-01-28T16:18:35.520Z,51.40
2023-01-28T16:21:03.299Z,53.10
2023-01-28T16:23:30.536Z,53.30
2023-01-28T16:26:05.177Z,54.10
2023-01-28T16:28:33.325Z,55.20
2023-01-28T16:31:01.428Z,56.50
2023-01-28T16:33:29.375Z,57.70
2023-01-28T16:36:11.480Z,58.70
2023-01-28T16:38:39.390Z,59.60
2023-01-28T16:41:16.505Z,61.00
2023-01-28T16:43:47.483Z,62.40
2023-01-28T16:46:15.258Z,64.80
2023-01-28T16:48:43.627Z,65.10
2023-01-28T16:51:21.141Z,66.50
2023-01-28T16:53:50.837Z,67.70
2023-01-28T16:56:30.593Z,68.90
2023-01-28T16:58:51.279Z,69.40
2023-01-28T17:01:18.822Z,69.80
2023-01-28T17:03:46.395Z,70.80
2023-01-28T17:06:17.546Z,71.00
2023-01-28T17:08:48.676Z,71.50
2023-01-28T17:11:16.578Z,72.30
2023-01-28T17:13:44.611Z,72.80
2023-01-28T17:16:12.174Z,73.90
2023-01-28T17:18:39.859Z,73.90
2023-01-28T17:21:08.912Z,74.50
2023-01-28T17:23:36.821Z,75.20
2023-01-28T17:26:08.753Z,75.30
2023-01-28T17:28:38.157Z,75.50
2023-01-28T17:31:14.159Z,76.00
2023-01-28T17:33:54.218Z,76.40
2023-01-28T17:36:22.334Z,76.70
2023-01-28T17:38:51.133Z,77.20
2023-01-28T17:41:24.884Z,78.10
2023-01-28T17:43:54.479Z,78.70
2023-01-28T17:46:24.504Z,79.20
2023-01-28T17:48:52.130Z,78.70
2023-01-28T17:51:20.561Z,79.40
2023-01-28T17:53:49.626Z,79.70
2023-01-28T17:56:19.956Z,80.40
2023-01-28T17:58:55.947Z,80.30
2023-01-28T18:01:25.677Z,80.80
2023-01-28T18:03:54.277Z,81.00
2023-01-28T18:06:22.363Z,81.30
2023-01-28T18:08:49.827Z,81.70
2023-01-28T18:11:19.856Z,82.00
2023-01-28T18:13:50.482Z,82.40
2023-01-28T18:16:30.369Z,83.00
2023-01-28T18:18:57.961Z,83.40
2023-01-28T18:21:53.621Z,83.50
2023-01-28T18:24:18.959Z,83.80
2023-01-28T18:26:46.772Z,84.10
2023-01-28T18:29:17.268Z,84.30
2023-01-28T18:31:45.003Z,84.80
2023-01-28T18:34:12.491Z,85.00
2023-01-28T18:36:40.658Z,85.90
2023-01-28T18:39:12.056Z,85.60
2023-01-28T18:41:40.515Z,85.50
2023-01-28T18:44:13.205Z,85.60
2023-01-28T18:46:41.781Z,86.00
2023-01-28T18:49:09.907Z,86.50
2023-01-28T18:51:39.752Z,86.50
2023-01-28T18:54:12.037Z,86.80
2023-01-28T18:56:39.242Z,86.90
2023-01-28T18:59:10.662Z,87.30
2023-01-28T19:01:40.409Z,87.40
2023-01-28T19:04:11.684Z,87.60
2023-01-28T19:06:52.615Z,87.80
2023-01-28T19:09:21.103Z,88.20
2023-01-28T19:11:48.555Z,88.60
2023-01-28T19:14:17.014Z,89.40
2023-01-28T19:16:45.053Z,89.00
2023-01-28T19:19:13.404Z,88.70
2023-01-28T19:21:41.267Z,88.90
2023-01-28T19:24:12.611Z,89.50
2023-01-28T19:26:40.873Z,89.80
2023-01-28T19:29:10.782Z,90.10
2023-01-28T19:31:39.325Z,89.90
2023-01-28T19:34:07.429Z,90.00
2023-01-28T19:36:36.252Z,89.70
2023-01-28T19:39:08.121Z,89.90
2023-01-28T19:41:37.692Z,90.20
2023-01-28T19:44:06.292Z,90.00
2023-01-28T19:46:36.323Z,89.90
2023-01-28T19:49:06.771Z,90.00
2023-01-28T19:51:35.003Z,90.00
2023-01-28T19:54:05.485Z,90.00
2023-01-28T19:56:36.255Z,90.20
2023-01-28T19:59:24.665Z,90.00
2023-01-28T20:01:52.587Z,90.00
2023-01-28T20:04:20.584Z,89.60
2023-01-28T20:07:03.014Z,88.90
2023-01-28T20:09:30.649Z,89.40
2023-01-28T20:11:58.469Z,89.60
2023-01-28T20:14:27.938Z,90.10
2023-01-28T20:16:57.111Z,90.00
2023-01-28T20:19:24.263Z,90.20
2023-01-28T20:21:52.759Z,90.10
2023-01-28T20:24:40.189Z,90.20
2023-01-28T20:27:08.695Z,90.10
2023-01-28T20:29:36.539Z,90.10
2023-01-28T20:34:53.957Z,90.30
2023-01-28T20:37:24.575Z,90.80
2023-01-28T20:39:53.930Z,90.60
2023-01-28T20:42:27.131Z,90.40
2023-01-28T20:44:54.847Z,90.70
2023-01-28T20:47:22.581Z,90.70
2023-01-28T20:49:50.065Z,90.70
2023-01-28T20:52:20.989Z,90.60
2023-01-28T20:54:49.303Z,90.70
2023-01-28T20:57:22.079Z,90.70
2023-01-28T20:59:50.886Z,90.80
2023-01-28T21:02:22.272Z,90.90
2023-01-28T21:04:53.858Z,91.10
2023-01-28T21:07:22.742Z,91.10
2023-01-28T21:09:50.817Z,91.10
2023-01-28T21:12:18.796Z,91.30
2023-01-28T21:14:46.351Z,91.30
2023-01-28T21:17:20.613Z,91.30
2023-01-28T21:19:51.410Z,91.20
2023-01-28T21:22:27.240Z,90.90
2023-01-28T21:24:56.108Z,91.20
2023-01-28T21:27:24.207Z,91.10
2023-01-28T21:29:51.807Z,91.10
2023-01-28T21:32:36.463Z,91.10
2023-01-28T21:35:05.181Z,91.30
2023-01-28T21:37:46.785Z,91.80
2023-01-28T21:40:21.023Z,92.20
2023-01-28T21:42:48.499Z,91.80
2023-01-28T21:45:26.514Z,91.40
2023-01-28T21:47:57.359Z,91.10
2023-01-28T21:50:24.990Z,91.20
2023-01-28T21:52:52.851Z,91.50
2023-01-28T21:55:20.776Z,91.40
2023-01-28T21:57:48.951Z,91.40
2023-01-28T22:00:18.461Z,91.50
2023-01-28T22:02:46.546Z,91.60
2023-01-28T22:05:14.474Z,91.80
2023-01-28T22:07:45.078Z,91.90
2023-01-28T22:10:29.396Z,92.10
2023-01-28T22:13:10.993Z,92.20
2023-01-28T22:15:41.641Z,91.90
2023-01-28T22:18:09.504Z,91.80
2023-01-28T22:20:41.456Z,91.90
2023-01-28T22:23:12.442Z,91.80
2023-01-28T22:25:43.227Z,91.80
2023-01-28T22:28:11.761Z,92.00
2023-01-28T22:30:39.523Z,92.10
2023-01-28T22:33:07.345Z,92.60
2023-01-28T22:35:35.134Z,92.00
2023-01-28T22:38:05.815Z,92.20
2023-01-28T22:40:35.193Z,92.50
2023-01-28T22:43:04.034Z,92.80
2023-01-28T22:45:31.815Z,93.20
2023-01-28T22:47:59.320Z,92.90
2023-01-28T22:50:27.596Z,92.90
2023-01-28T22:52:55.901Z,92.90
2023-01-28T22:55:24.906Z,92.70
2023-01-28T22:57:52.719Z,92.70
2023-01-28T23:00:21.372Z,92.80
2023-01-28T23:02:49.370Z,92.80
2023-01-28T23:05:17.274Z,92.80
2023-01-28T23:08:00.920Z,92.90
2023-01-28T23:10:28.422Z,93.00
2023-01-28T23:12:56.734Z,92.60
2023-01-28T23:15:42.666Z,92.50
2023-01-28T23:18:34.297Z,92.70
2023-01-28T23:21:21.379Z,92.50
2023-01-28T23:24:11.009Z,92.60
2023-01-28T23:26:41.323Z,92.70
2023-01-28T23:29:10.955Z,92.80
2023-01-28T23:31:44.136Z,92.70
2023-01-28T23:34:12.039Z,92.80
2023-01-28T23:36:40.189Z,93.10
2023-01-28T23:39:08.196Z,93.00
2023-01-28T23:41:36.009Z,93.10
2023-01-28T23:44:04.520Z,92.80
2023-01-28T23:46:54.251Z,92.70
2023-01-28T23:49:23.512Z,93.00
2023-01-28T23:51:51.230Z,93.00
2023-01-28T23:54:19.034Z,93.00
2023-01-28T23:56:47.835Z,92.60
2023-01-28T23:59:15.679Z,92.40
